Portada
METAR-TAF:

METAR-TAF

Aeroports :

Karachi, Uzbekistan

latitud: 38-48-12N, longitud: 065-46-24E, altitud: 375 m

Observació

L'informe es va fer fa 15 minuts, a les 17:30 UTC
Vent 6 kt del Est/Sud-Est
Temperatura 11°C
Humitat 50%
Pressió 1014 hPa
Visibilitat 10 km o més
sense núvols per sota de 1500 mi sense presència de cumulonimbus.

METAR: UTSK 201730Z 11006KT CAVOK 11/01 Q1014 R16/CLRD70

Hora: 22:45 (17:45 UTC)

Pronòstic

L'informe es va fer fa 5 hores i 55 minuts, a les 11:50 UTC
Pronòstic vàlid del 20 a les 13 UTC al 20 a les 22 UTC
Vent 10 kt del Sud/Sud-Est amb ràfegues de 20 kt
Visibilitat 10 km o més
Escasses núvols a una alçada de 6600 ft, Cumulonimbus.
Temporalment
l' 20 a les 13 UTC al 20 a les 22 UTC
Vent 18 kt del Oest/Sud-Oest amb ràfegues de 28 kt
Visibilitat: 5000 m
Pols estès

TAF: UTSK 201150Z 2013/2022 15010G20KT 9999 FEW066CB TEMPO 2013/2022 24018G28KT 5000 DU

Observacions i pronòstics meteorològics de més de 4000 aeroports (METAR i TAF).

Les estacions disponibles són els punts grocs i vermells al mapa.

Posi el ratolí al punt desitjat per veure el nom de l'estació.

Feu clic per veure les observacions i els pronòstics meteorològics.

Per canviar el mapa: feu clic els botons verds amb una creu de color negre per apropar; al botó verd amb un guió per allunyar la imatge; o en les fletxes verdes per a mapes adjacents.


METAR-TAF: